createdAt,value
2018-05-03T00:46:25.838Z,14.48
2018-05-03T00:48:59.109Z,14.46
2018-05-03T00:51:32.367Z,14.44
2018-05-03T00:54:06.398Z,14.44
2018-05-03T00:56:39.668Z,14.39
2018-05-03T00:59:13.714Z,14.32
2018-05-03T02:32:44.658Z,13.63
2018-05-03T02:35:17.908Z,13.63
2018-05-03T02:41:11.280Z,13.67
2018-05-03T02:43:44.547Z,13.67
2018-05-03T03:48:07.879Z,13.72
2018-05-03T03:50:41.136Z,13.73
2018-05-03T03:53:14.430Z,13.70
2018-05-03T03:55:47.659Z,13.68
2018-05-03T03:58:20.943Z,13.66
2018-05-03T04:33:25.813Z,13.47
2018-05-03T04:35:59.083Z,13.48
2018-05-03T04:38:32.362Z,13.47
2018-05-03T04:41:06.377Z,13.40
2018-05-03T04:43:39.655Z,13.47
2018-05-03T04:46:13.676Z,13.47
2018-05-03T04:48:47.728Z,13.51
2018-05-03T04:51:20.986Z,13.50
2018-05-03T04:53:55.021Z,13.49
2018-05-03T04:56:28.279Z,13.45
2018-05-03T04:59:02.335Z,13.44
2018-05-03T05:01:35.581Z,13.44
2018-05-03T05:04:09.620Z,13.46
2018-05-03T05:06:42.886Z,13.48
2018-05-03T05:09:16.940Z,13.49
2018-05-03T05:11:50.383Z,13.52
2018-05-03T05:14:23.660Z,13.54
2018-05-03T05:16:56.969Z,13.53
2018-05-03T05:19:30.187Z,13.48
2018-05-03T05:22:04.208Z,13.47
2018-05-03T05:24:37.479Z,13.47
2018-05-03T05:27:10.738Z,13.53
2018-05-03T05:29:44.009Z,13.53
2018-05-03T05:32:17.272Z,13.57
2018-05-03T05:34:51.315Z,13.60
2018-05-03T05:37:24.569Z,13.60
2018-05-03T05:39:58.611Z,13.60
2018-05-03T05:42:31.863Z,13.61
2018-05-03T05:45:05.142Z,13.60
2018-05-03T05:47:38.392Z,13.63
2018-05-03T05:50:11.669Z,13.62
2018-05-03T05:52:44.941Z,13.58
2018-05-03T05:55:18.204Z,13.60
2018-05-03T05:57:51.459Z,13.61
2018-05-03T06:00:24.727Z,13.65
2018-05-03T06:02:57.989Z,13.56
2018-05-03T06:05:31.253Z,13.55
2018-05-03T06:08:04.523Z,13.62
2018-05-03T06:10:38.568Z,13.66
2018-05-03T06:13:11.828Z,13.69
2018-05-03T06:15:45.106Z,13.73
2018-05-03T06:18:18.356Z,13.72
2018-05-03T06:20:51.635Z,13.77
2018-05-03T06:23:24.888Z,13.72
2018-05-03T06:25:59.014Z,13.72
2018-05-03T06:28:32.188Z,13.76
2018-05-03T07:03:28.639Z,14.05
2018-05-03T07:06:01.924Z,13.98
2018-05-03T07:08:35.184Z,13.92
2018-05-03T07:11:09.229Z,14.06
2018-05-03T07:13:42.483Z,14.11
2018-05-03T08:01:49.974Z,14.90
2018-05-03T08:04:23.262Z,14.97
2018-05-03T08:06:56.548Z,14.92
2018-05-03T08:09:29.809Z,15.01
2018-05-03T08:12:03.966Z,15.09
2018-05-03T08:14:37.220Z,14.94
2018-05-03T09:02:43.780Z,15.73
2018-05-03T09:05:17.058Z,15.82
2018-05-03T09:07:50.364Z,15.86
2018-05-03T09:10:24.360Z,15.81
2018-05-03T09:12:57.604Z,15.80
2018-05-03T10:01:05.764Z,16.63
2018-05-03T10:03:39.036Z,16.70
2018-05-03T10:06:12.411Z,16.56
2018-05-03T10:08:46.441Z,16.53
2018-05-03T10:11:19.849Z,16.60
2018-05-03T10:13:53.101Z,16.70
2018-05-03T11:02:00.680Z,17.51
2018-05-03T11:04:33.956Z,17.52
2018-05-03T11:07:07.206Z,17.58
2018-05-03T11:09:41.250Z,17.79
2018-05-03T11:12:14.517Z,18.07
2018-05-03T11:14:48.564Z,18.28
2018-05-03T12:02:55.933Z,19.22
2018-05-03T12:05:29.204Z,18.90
2018-05-03T12:08:03.228Z,18.76
2018-05-03T12:10:37.273Z,18.78
2018-05-03T12:13:10.528Z,18.69
2018-05-03T13:01:17.390Z,19.12
2018-05-03T13:03:50.648Z,19.16
2018-05-03T13:06:23.935Z,19.16
2018-05-03T13:08:57.189Z,19.15
2018-05-03T13:11:30.471Z,19.25
2018-05-03T13:14:04.487Z,19.28
2018-05-03T14:02:10.889Z,19.95
2018-05-03T14:04:44.933Z,19.96
2018-05-03T14:07:18.252Z,19.90
2018-05-03T14:09:52.233Z,19.91
2018-05-03T14:12:25.511Z,19.69
2018-05-03T14:14:58.805Z,19.74
2018-05-03T14:46:48.513Z,22.20
2018-05-03T14:49:21.887Z,22.24
2018-05-03T14:51:55.149Z,22.22
2018-05-03T14:54:28.477Z,22.57
2018-05-03T14:57:01.732Z,22.78
2018-05-03T14:59:35.020Z,22.82
2018-05-03T15:31:27.496Z,20.46
2018-05-03T15:34:00.760Z,20.36
2018-05-03T15:36:34.037Z,20.42
2018-05-03T15:39:07.304Z,20.24
2018-05-03T15:41:40.586Z,20.17
2018-05-03T15:44:13.849Z,20.16
2018-05-03T15:46:47.201Z,20.05
2018-05-03T15:49:21.226Z,19.96
2018-05-03T15:51:54.584Z,20.01
2018-05-03T15:54:27.835Z,19.99
2018-05-03T15:57:01.130Z,19.94
2018-05-03T15:59:34.412Z,19.86
2018-05-03T16:02:07.941Z,19.89
2018-05-03T16:04:41.200Z,19.97
2018-05-03T16:07:14.490Z,19.89
2018-05-03T16:09:47.747Z,19.88
2018-05-03T16:12:21.048Z,19.89
2018-05-03T16:14:54.309Z,19.79
2018-05-03T16:17:27.627Z,19.74
2018-05-03T16:20:01.673Z,19.81
2018-05-03T16:22:35.725Z,19.78
2018-05-03T16:25:08.991Z,19.79
2018-05-03T16:27:42.332Z,19.75
2018-05-03T16:30:15.588Z,19.71
2018-05-03T16:32:48.897Z,19.70
2018-05-03T16:35:22.165Z,19.59
2018-05-03T16:37:55.443Z,19.61
2018-05-03T16:40:29.465Z,19.52
2018-05-03T16:43:02.857Z,19.49
2018-05-03T16:45:36.203Z,19.50
2018-05-03T16:48:09.484Z,19.56
2018-05-03T16:50:42.751Z,19.46
2018-05-03T16:53:16.025Z,19.42
2018-05-03T16:55:50.070Z,19.43
2018-05-03T16:58:23.354Z,19.45
2018-05-03T17:00:56.689Z,19.43
2018-05-03T17:03:29.994Z,19.43
2018-05-03T17:06:03.264Z,19.46
2018-05-03T17:08:36.548Z,19.50
2018-05-03T17:11:09.936Z,19.46
2018-05-03T17:13:43.209Z,19.46
2018-05-03T17:16:17.320Z,19.48
2018-05-03T17:18:50.605Z,19.44
2018-05-03T17:21:23.895Z,19.41
2018-05-03T17:23:57.152Z,19.45
2018-05-03T17:26:30.429Z,19.47
2018-05-03T17:29:03.708Z,19.41
2018-05-03T17:31:36.983Z,19.36
2018-05-03T17:34:10.255Z,19.35
2018-05-03T17:36:43.585Z,19.27
2018-05-03T17:39:17.604Z,19.19
2018-05-03T17:41:50.897Z,19.11
2018-05-03T17:44:24.211Z,19.13
2018-05-03T17:46:58.004Z,19.20
2018-05-03T17:49:31.272Z,19.16
2018-05-03T17:52:05.388Z,19.11
2018-05-03T17:54:39.412Z,19.11
2018-05-03T17:57:12.699Z,19.08
2018-05-03T17:59:45.971Z,19.08
2018-05-03T18:02:19.290Z,19.08
2018-05-03T18:04:52.557Z,19.01
2018-05-03T18:07:25.956Z,19.02
2018-05-03T18:09:59.204Z,18.98
2018-05-03T18:12:32.600Z,18.88
2018-05-03T18:15:05.864Z,18.90
2018-05-03T18:17:39.919Z,18.93
2018-05-03T18:20:13.191Z,18.87
2018-05-03T18:22:46.580Z,18.77
2018-05-03T18:25:19.874Z,18.70
2018-05-03T18:27:53.183Z,18.66
2018-05-03T18:30:26.452Z,18.64
2018-05-03T18:32:59.732Z,18.64
2018-05-03T18:35:33.767Z,18.59
2018-05-03T18:38:07.044Z,18.62
2018-05-03T18:40:40.339Z,18.58
2018-05-03T18:43:14.407Z,18.56
2018-05-03T18:45:47.926Z,18.52
2018-05-03T18:48:22.032Z,18.50
2018-05-03T18:50:57.084Z,18.45
2018-05-03T18:53:30.513Z,18.49
2018-05-03T18:56:03.771Z,18.52
2018-05-03T18:58:37.086Z,18.52
2018-05-03T19:01:11.225Z,18.48
2018-05-03T19:03:44.497Z,18.49
2018-05-03T19:06:18.620Z,18.52
2018-05-03T19:08:51.898Z,18.48
2018-05-03T19:11:25.929Z,18.43
2018-05-03T19:13:59.219Z,18.42
2018-05-03T19:16:32.546Z,18.41
2018-05-03T19:19:06.697Z,18.38
2018-05-03T19:21:39.966Z,18.36
2018-05-03T19:24:13.243Z,18.37
2018-05-03T19:26:46.517Z,18.36
2018-05-03T19:29:19.798Z,18.34
2018-05-03T19:31:53.821Z,18.35
2018-05-03T19:34:27.162Z,18.28
2018-05-03T19:37:00.506Z,18.24
2018-05-03T19:39:35.381Z,18.22
2018-05-03T19:42:08.588Z,18.19
2018-05-03T19:44:41.876Z,18.15
2018-05-03T19:47:15.264Z,18.12
2018-05-03T19:49:48.545Z,18.08
2018-05-03T19:52:21.814Z,18.08
2018-05-03T19:54:55.093Z,18.08
2018-05-03T19:57:29.141Z,18.04
2018-05-03T20:00:02.462Z,17.98
2018-05-03T20:02:35.782Z,17.92
2018-05-03T20:05:09.041Z,17.87
2018-05-03T20:07:42.349Z,17.77
2018-05-03T20:10:15.610Z,17.73
2018-05-03T20:12:48.896Z,17.68
2018-05-03T20:15:22.193Z,17.62
2018-05-03T20:17:55.453Z,17.65
2018-05-03T20:20:28.751Z,17.69
2018-05-03T20:23:02.784Z,17.68
2018-05-03T20:25:36.064Z,17.66
2018-05-03T20:28:09.600Z,17.62
2018-05-03T20:30:42.897Z,17.61
2018-05-03T20:33:16.154Z,17.57
2018-05-03T20:35:49.532Z,17.57
2018-05-03T20:38:22.803Z,17.57
2018-05-03T20:40:56.096Z,17.62
2018-05-03T20:43:29.354Z,17.56
2018-05-03T20:46:02.736Z,17.53
2018-05-03T20:48:35.908Z,17.56
2018-05-03T20:51:09.948Z,17.53
2018-05-03T20:53:43.217Z,17.50
2018-05-03T20:56:16.497Z,17.46
2018-05-03T20:58:49.751Z,17.40
2018-05-03T21:01:23.027Z,17.39
2018-05-03T21:03:56.284Z,17.36
2018-05-03T21:06:30.326Z,17.36
2018-05-03T21:09:03.585Z,17.34
2018-05-03T21:11:36.885Z,17.36
2018-05-03T21:14:10.139Z,17.25
2018-05-03T21:16:43.697Z,17.23
2018-05-03T21:19:16.967Z,17.29
2018-05-03T21:21:50.267Z,17.24
2018-05-03T21:24:24.302Z,17.13
2018-05-03T21:26:57.594Z,17.10
2018-05-03T21:29:31.615Z,17.14
2018-05-03T21:32:05.008Z,17.10
2018-05-03T21:34:38.264Z,17.02
2018-05-03T21:37:11.569Z,17.00
2018-05-03T21:39:45.597Z,17.04
2018-05-03T21:42:18.900Z,17.01
2018-05-03T21:44:52.916Z,16.99
2018-05-03T21:47:26.244Z,17.00
2018-05-03T21:50:00.264Z,16.97
2018-05-03T21:52:33.804Z,16.97
2018-05-03T21:55:07.833Z,16.95
2018-05-03T21:57:41.115Z,16.96
2018-05-03T22:00:15.138Z,16.98
2018-05-03T22:02:48.452Z,16.85
2018-05-03T22:05:21.709Z,16.80
2018-05-03T22:07:56.036Z,16.82
2018-05-03T22:10:29.296Z,16.86
2018-05-03T22:13:02.611Z,16.91
2018-05-03T22:15:35.864Z,16.92
2018-05-03T22:18:09.140Z,16.91
2018-05-03T22:20:42.408Z,16.95
2018-05-03T22:23:15.705Z,16.95
2018-05-03T22:25:48.967Z,16.96
2018-05-03T22:28:22.257Z,16.99
2018-05-03T22:30:55.522Z,16.98
2018-05-03T22:33:28.787Z,16.93
2018-05-03T22:36:02.040Z,16.85
2018-05-03T22:38:35.330Z,16.87
2018-05-03T22:41:08.635Z,16.82
2018-05-03T22:43:41.909Z,16.82
2018-05-03T22:46:15.120Z,16.80
2018-05-03T22:48:48.400Z,16.80
2018-05-03T22:51:21.661Z,16.77
2018-05-03T22:53:54.935Z,16.71
2018-05-03T22:56:28.193Z,16.62
2018-05-03T22:59:01.487Z,16.61
2018-05-03T23:01:34.743Z,16.60
2018-05-03T23:04:08.012Z,16.58
2018-05-03T23:06:41.276Z,16.57
2018-05-03T23:09:14.565Z,16.57
2018-05-03T23:11:47.821Z,16.56
2018-05-03T23:14:21.096Z,16.51
